CDT,Max TemperatureF,Mean TemperatureF,Min TemperatureF,Max Dew PointF,MeanDew PointF,Min DewpointF,Max Humidity, Mean Humidity, Min Humidity, Max Sea Level PressureIn, Mean Sea Level PressureIn, Min Sea Level PressureIn, Max VisibilityMiles, Mean VisibilityMiles, Min VisibilityMiles, Max Wind SpeedMPH, Mean Wind SpeedMPH, Max Gust SpeedMPH,PrecipitationIn, CloudCover, Events, WindDirDegrees
2012-9-1,95,87,79,77,74,68,87,66,43,30.06,30.00,29.97,10,7,5,21,9,30,0.01,2,Rain-Thunderstorm,143
2012-9-2,100,88,77,76,70,62,89,60,30,30.04,29.98,29.91,10,8,4,20,11,25,0.00,0,,147
2012-9-3,100,87,74,77,72,64,91,63,31,30.00,29.94,29.86,10,8,2,18,9,25,0.00,1,,145
2012-9-4,101,88,75,76,71,62,90,61,28,29.97,29.90,29.82,10,8,4,18,10,26,0.00,1,,149
2012-9-5,102,90,77,76,71,63,86,61,29,29.91,29.86,29.77,10,8,5,20,8,24,0.00,2,,150
2012-9-6,102,89,77,76,70,62,89,59,27,29.94,29.88,29.82,10,8,4,16,9,24,0.00,1,,146
2012-9-7,102,88,75,76,70,60,90,60,26,29.92,29.85,29.77,10,8,4,16,8,21,0.00,1,,155
2012-9-8,103,88,73,76,70,55,91,59,21,29.97,29.88,29.84,10,8,2,17,6,23,0.00,1,Thunderstorm,130
2012-9-9,95,85,74,72,64,43,85,54,17,30.09,30.03,29.98,10,8,5,16,5,18,0.04,2,Rain-Thunderstorm,12
2012-9-10,96,81,67,66,61,52,86,57,24,30.10,30.03,29.95,10,8,5,21,3,28,0.00,0,,74
2012-9-11,98,83,68,72,63,53,81,56,22,30.04,29.98,29.91,10,8,4,20,3,22,0.00,1,,128
2012-9-12,99,86,75,75,70,64,88,61,33,30.01,29.95,29.88,10,8,5,22,8,30,0.00,1,,143
2012-9-13,95,86,77,75,69,64,87,64,38,30.07,30.00,29.93,10,9,4,23,8,31,0.00,2,Rain,143
2012-9-14,93,86,78,71,67,64,77,60,41,30.13,30.07,30.01,10,10,7,16,5,18,0.00,4,Thunderstorm,45
2012-9-15,90,82,75,71,69,66,81,66,45,30.14,30.09,30.02,10,10,7,17,9,23,0.00,5,,14
2012-9-16,90,82,74,71,68,64,84,64,43,30.07,29.99,29.89,10,9,5,13,5,,0.00,4,,339
2012-9-17,97,83,69,70,67,60,92,65,29,29.95,29.85,29.74,10,7,0,20,5,22,0.00,1,Fog,67
2012-9-18,96,85,74,73,67,61,84,62,34,30.02,29.93,29.86,10,9,7,16,6,20,0.00,0,,92
2012-9-19,97,84,72,68,63,53,79,54,23,30.10,30.03,29.96,10,8,5,18,3,,0.00,2,,25
2012-9-20,96,82,69,68,62,50,85,61,21,30.06,30.02,29.93,10,8,5,18,2,23,0.00,1,,86
2012-9-21,96,80,65,64,57,46,79,49,18,30.01,29.96,29.87,10,8,3,18,4,16,0.00,0,,73
2012-9-22,98,82,67,69,62,58,73,60,29,30.08,30.01,29.97,10,8,7,18,3,23,0.00,2,,100
2012-9-23,91,82,72,73,70,67,90,73,46,30.14,30.09,30.05,10,8,5,18,2,28,0.10,2,Rain-Thunderstorm,67
2012-9-24,97,84,73,74,69,60,92,67,30,30.14,30.07,29.97,10,7,3,20,4,24,0.00,2,,112
2012-9-25,97,84,71,71,68,63,90,64,32,30.05,29.97,29.88,10,7,4,20,7,26,0.00,1,,140
2012-9-26,97,86,75,73,71,66,85,65,37,29.98,29.93,29.86,10,8,5,20,8,25,0.00,2,,126
2012-9-27,96,84,76,75,73,67,87,72,41,30.01,29.97,29.90,10,8,5,25,6,31,0.00,2,Rain-Thunderstorm,117
2012-9-28,92,84,76,76,74,71,88,73,51,29.98,29.91,29.82,10,8,5,20,9,25,0.01,1,Rain-Thunderstorm,129
2012-9-29,100,90,79,77,73,65,88,67,32,29.88,29.80,29.67,10,8,5,21,8,28,0.11,4,Rain-Thunderstorm,173
2012-9-30,92,82,74,66,62,57,70,53,31,29.89,29.83,29.77,10,9,7,22,14,30,0.00,3,Thunderstorm,323